Time;durP1;ratioP1;P1;durP2;ratioP2;P2;SDS_P1;SDS_P2;PMS_P1;PMS_P2;Temp;Humidity;BMP_temperature;BMP_pressure;BME280_temperature;BME280_humidity;BME280_pressure;Samples;Min_cycle;Max_cycle;Signal;HPM_P1;HPM_P2
2024/01/14 00:02:16;;;;;;;76.88;31.70;;;;;;;;;;5099380;28;20029;-58
2024/01/14 00:04:42;;;;;;;72.27;32.03;;;;;;;;;;5091113;28;20016;-57
2024/01/14 00:07:07;;;;;;;72.75;31.30;;;;;;;;;;5091075;28;20602;-57
2024/01/14 00:09:33;;;;;;;76.80;30.57;;;;;;;;;;5095478;28;20068;-56
2024/01/14 00:11:58;;;;;;;79.57;32.75;;;;;;;;;;5091349;28;20258;-57
2024/01/14 00:14:23;;;;;;;75.32;31.17;;;;;;;;;;5092845;28;20050;-56
2024/01/14 00:16:48;;;;;;;75.30;32.80;;;;;;;;;;5091564;28;20031;-58
2024/01/14 00:19:13;;;;;;;75.07;30.70;;;;;;;;;;5090764;28;20339;-58
2024/01/14 00:21:39;;;;;;;76.67;31.93;;;;;;;;;;5089411;28;20265;-58
2024/01/14 00:24:04;;;;;;;73.80;31.85;;;;;;;;;;5091911;28;20730;-58
2024/01/14 00:26:30;;;;;;;76.90;31.80;;;;;;;;;;5095903;28;20035;-58
2024/01/14 00:28:58;;;;;;;75.03;31.67;;;;;;;;;;5091569;28;20030;-56
2024/01/14 00:31:23;;;;;;;75.18;31.63;;;;;;;;;;5090754;28;20031;-58
2024/01/14 00:33:49;;;;;;;70.38;31.58;;;;;;;;;;5098051;28;20028;-58
2024/01/14 00:36:14;;;;;;;71.22;29.58;;;;;;;;;;5092789;28;20043;-58
2024/01/14 00:38:40;;;;;;;76.30;29.85;;;;;;;;;;5092387;28;20062;-58
2024/01/14 00:41:05;;;;;;;72.23;30.77;;;;;;;;;;5095791;28;20066;-56
2024/01/14 00:43:30;;;;;;;73.20;30.70;;;;;;;;;;5093597;28;20274;-57
2024/01/14 00:45:55;;;;;;;70.60;29.85;;;;;;;;;;5098897;28;20304;-58
2024/01/14 00:48:20;;;;;;;68.82;30.27;;;;;;;;;;5093168;28;20015;-57
2024/01/14 00:50:46;;;;;;;75.75;29.65;;;;;;;;;;5094039;28;20030;-56
2024/01/14 00:53:11;;;;;;;67.83;28.40;;;;;;;;;;5095533;28;20015;-57
2024/01/14 00:55:36;;;;;;;70.88;29.63;;;;;;;;;;5092808;28;20864;-59
2024/01/14 00:58:02;;;;;;;73.47;28.65;;;;;;;;;;5091239;28;20020;-59
2024/01/14 01:00:27;;;;;;;74.20;28.38;;;;;;;;;;5092716;28;20090;-61
2024/01/14 01:02:52;;;;;;;58.40;25.03;;;;;;;;;;5090072;28;20545;-62
2024/01/14 01:05:17;;;;;;;80.13;31.65;;;;;;;;;;5091070;28;20265;-61
2024/01/14 01:07:43;;;;;;;67.85;27.40;;;;;;;;;;5092283;28;20039;-63
2024/01/14 01:10:09;;;;;;;69.73;28.50;;;;;;;;;;5092689;28;20028;-62
2024/01/14 01:12:34;;;;;;;70.35;28.17;;;;;;;;;;5092783;28;20772;-62
2024/01/14 01:15:00;;;;;;;74.57;30.67;;;;;;;;;;5093533;28;20030;-63
2024/01/14 01:17:25;;;;;;;65.78;28.95;;;;;;;;;;5091673;28;20376;-63
2024/01/14 01:19:50;;;;;;;61.80;24.90;;;;;;;;;;5092811;28;20023;-63
2024/01/14 01:22:15;;;;;;;67.45;28.73;;;;;;;;;;5091995;28;20024;-62
2024/01/14 01:24:40;;;;;;;66.77;27.60;;;;;;;;;;5092991;28;20076;-63
2024/01/14 01:27:06;;;;;;;63.67;28.10;;;;;;;;;;5091614;28;20270;-63
2024/01/14 01:29:31;;;;;;;64.40;27.07;;;;;;;;;;5092622;28;20349;-63
2024/01/14 01:31:56;;;;;;;69.72;30.33;;;;;;;;;;5091164;28;20350;-63
2024/01/14 01:34:21;;;;;;;68.13;29.00;;;;;;;;;;5091479;28;20085;-62
2024/01/14 01:36:46;;;;;;;62.50;28.02;;;;;;;;;;5090250;28;20662;-64
2024/01/14 01:39:14;;;;;;;70.97;31.83;;;;;;;;;;5092204;28;20073;-61
2024/01/14 01:41:39;;;;;;;58.10;26.85;;;;;;;;;;5092204;28;20349;-62
2024/01/14 01:44:04;;;;;;;66.35;29.67;;;;;;;;;;5092900;28;20024;-62
2024/01/14 01:46:29;;;;;;;64.70;28.43;;;;;;;;;;5092635;28;20048;-63
2024/01/14 01:48:54;;;;;;;61.47;26.77;;;;;;;;;;5092215;28;20406;-63
2024/01/14 01:51:20;;;;;;;63.22;26.42;;;;;;;;;;5091883;28;20502;-63
2024/01/14 01:53:45;;;;;;;66.68;27.85;;;;;;;;;;5091359;28;20081;-63
2024/01/14 01:56:11;;;;;;;66.88;28.40;;;;;;;;;;5091759;28;20022;-62
2024/01/14 01:58:36;;;;;;;63.08;28.05;;;;;;;;;;5092642;28;20052;-63
2024/01/14 02:01:05;;;;;;;55.40;24.17;;;;;;;;;;5094368;28;20024;-63
2024/01/14 02:03:30;;;;;;;61.42;26.15;;;;;;;;;;5095073;28;20020;-63
2024/01/14 02:05:57;;;;;;;60.65;25.65;;;;;;;;;;5096903;28;20141;-62
2024/01/14 02:08:23;;;;;;;53.97;26.15;;;;;;;;;;5094879;28;20550;-63
2024/01/14 02:10:48;;;;;;;53.70;24.95;;;;;;;;;;5096024;28;20037;-63
2024/01/14 02:13:14;;;;;;;55.08;25.38;;;;;;;;;;5096584;28;20024;-63
2024/01/14 02:15:39;;;;;;;58.22;25.13;;;;;;;;;;5095828;28;20070;-63
2024/01/14 02:18:04;;;;;;;55.55;25.38;;;;;;;;;;5096043;28;20030;-64
2024/01/14 02:20:29;;;;;;;49.70;22.30;;;;;;;;;;5096045;28;20091;-63
2024/01/14 02:22:55;;;;;;;53.03;25.73;;;;;;;;;;5095130;28;20729;-62
2024/01/14 02:25:20;;;;;;;58.45;26.00;;;;;;;;;;5095701;28;20280;-64
2024/01/14 02:27:45;;;;;;;58.63;25.70;;;;;;;;;;5096535;28;20028;-64
2024/01/14 02:30:11;;;;;;;55.97;26.55;;;;;;;;;;5096937;28;20034;-64
2024/01/14 02:32:37;;;;;;;56.03;25.45;;;;;;;;;;5095085;28;20022;-64
2024/01/14 02:35:02;;;;;;;58.63;26.00;;;;;;;;;;5095826;28;20101;-64
2024/01/14 02:37:30;;;;;;;58.72;27.63;;;;;;;;;;5094229;28;20020;-62
2024/01/14 02:39:55;;;;;;;56.43;24.47;;;;;;;;;;5095346;28;20632;-62
2024/01/14 02:42:20;;;;;;;55.77;23.83;;;;;;;;;;5095158;28;20385;-62
2024/01/14 02:44:45;;;;;;;58.50;26.27;;;;;;;;;;5095538;28;20400;-62
2024/01/14 02:47:10;;;;;;;67.17;28.40;;;;;;;;;;5093865;28;20619;-63
2024/01/14 02:49:36;;;;;;;66.00;27.90;;;;;;;;;;5094715;28;20265;-64
2024/01/14 02:52:02;;;;;;;63.05;27.27;;;;;;;;;;5094971;28;20594;-63
2024/01/14 02:54:27;;;;;;;65.85;29.45;;;;;;;;;;5094982;28;20155;-62
2024/01/14 02:56:53;;;;;;;67.65;28.88;;;;;;;;;;5094613;28;20159;-62
2024/01/14 02:59:18;;;;;;;61.10;27.40;;;;;;;;;;5094105;28;20016;-62
2024/01/14 03:01:44;;;;;;;63.30;27.48;;;;;;;;;;5094150;28;20024;-62
2024/01/14 03:04:09;;;;;;;65.10;28.35;;;;;;;;;;5093694;28;20023;-63
2024/01/14 03:06:35;;;;;;;63.43;27.37;;;;;;;;;;5094667;28;20083;-63
2024/01/14 03:09:00;;;;;;;61.40;27.40;;;;;;;;;;5094546;28;20274;-63
2024/01/14 03:11:25;;;;;;;68.17;29.97;;;;;;;;;;5094161;28;20966;-63
2024/01/14 03:13:50;;;;;;;64.27;28.30;;;;;;;;;;5094531;28;20261;-63
2024/01/14 03:16:15;;;;;;;62.53;27.70;;;;;;;;;;5095710;28;20571;-63
2024/01/14 03:18:41;;;;;;;64.33;28.93;;;;;;;;;;5093109;28;20277;-62
2024/01/14 03:21:06;;;;;;;63.25;26.85;;;;;;;;;;5093590;28;20368;-62
2024/01/14 03:23:31;;;;;;;65.80;29.27;;;;;;;;;;5093293;28;20020;-62
2024/01/14 03:25:56;;;;;;;61.70;28.07;;;;;;;;;;5094280;28;20011;-63
2024/01/14 03:28:21;;;;;;;60.23;27.33;;;;;;;;;;5094996;28;20262;-62
2024/01/14 03:30:46;;;;;;;60.90;27.27;;;;;;;;;;5093745;28;20285;-63
2024/01/14 03:33:12;;;;;;;63.50;26.90;;;;;;;;;;5094249;28;20276;-62
2024/01/14 03:35:37;;;;;;;57.33;25.93;;;;;;;;;;5094038;28;20273;-63
2024/01/14 03:38:02;;;;;;;58.20;25.17;;;;;;;;;;5094837;28;20254;-62
2024/01/14 03:40:27;;;;;;;61.67;26.17;;;;;;;;;;5093443;28;20034;-63
2024/01/14 03:42:52;;;;;;;58.40;27.53;;;;;;;;;;5093793;28;20102;-62
2024/01/14 03:45:18;;;;;;;52.77;24.03;;;;;;;;;;5095120;28;20949;-62
2024/01/14 03:47:43;;;;;;;55.97;25.57;;;;;;;;;;5093644;28;20276;-63
2024/01/14 03:50:08;;;;;;;59.23;25.87;;;;;;;;;;5093628;28;21013;-63
2024/01/14 03:52:33;;;;;;;56.95;24.27;;;;;;;;;;5092756;28;20273;-63
2024/01/14 03:54:58;;;;;;;57.37;24.77;;;;;;;;;;5094182;28;20365;-63
2024/01/14 03:57:24;;;;;;;55.67;24.70;;;;;;;;;;5092840;28;20256;-63
2024/01/14 03:59:49;;;;;;;53.35;22.92;;;;;;;;;;5093520;28;20266;-63
2024/01/14 04:02:14;;;;;;;53.80;24.20;;;;;;;;;;5094167;28;20516;-62
2024/01/14 04:04:39;;;;;;;52.67;23.85;;;;;;;;;;5093208;28;20266;-62
2024/01/14 04:07:04;;;;;;;50.40;23.40;;;;;;;;;;5093101;28;20023;-62
2024/01/14 04:09:30;;;;;;;52.28;22.58;;;;;;;;;;5094058;28;20664;-62
2024/01/14 04:11:55;;;;;;;49.38;23.40;;;;;;;;;;5093583;28;20455;-62
2024/01/14 04:14:20;;;;;;;50.90;22.93;;;;;;;;;;5092345;28;20460;-63
2024/01/14 04:16:45;;;;;;;50.77;24.00;;;;;;;;;;5093020;28;20257;-62
2024/01/14 04:19:11;;;;;;;55.83;23.40;;;;;;;;;;5092554;28;20360;-62
2024/01/14 04:21:36;;;;;;;55.22;24.48;;;;;;;;;;5092519;28;20020;-63
2024/01/14 04:24:04;;;;;;;58.27;26.93;;;;;;;;;;5090773;28;20024;-63
2024/01/14 04:26:29;;;;;;;56.65;25.73;;;;;;;;;;5093156;28;20502;-62
2024/01/14 04:28:55;;;;;;;55.35;25.23;;;;;;;;;;5094454;28;20016;-61
2024/01/14 04:31:20;;;;;;;55.73;23.83;;;;;;;;;;5092995;28;20034;-60
2024/01/14 04:33:46;;;;;;;56.95;25.55;;;;;;;;;;5094910;28;20331;-60
2024/01/14 04:36:11;;;;;;;54.35;25.20;;;;;;;;;;5093413;28;20405;-62
2024/01/14 04:38:36;;;;;;;55.78;25.25;;;;;;;;;;5093484;28;20020;-62
2024/01/14 04:41:01;;;;;;;56.13;24.55;;;;;;;;;;5093207;28;20024;-63
2024/01/14 04:43:27;;;;;;;53.88;23.88;;;;;;;;;;5093138;28;20024;-63
2024/01/14 04:45:52;;;;;;;50.83;23.67;;;;;;;;;;5092986;28;20044;-63
2024/01/14 04:48:17;;;;;;;54.37;23.33;;;;;;;;;;5094041;28;20024;-63
2024/01/14 04:50:42;;;;;;;51.65;22.60;;;;;;;;;;5092698;28;20282;-62
2024/01/14 04:53:08;;;;;;;52.85;22.95;;;;;;;;;;5092676;28;20028;-61
2024/01/14 04:55:34;;;;;;;52.28;23.08;;;;;;;;;;5091074;28;20039;-62
2024/01/14 04:57:59;;;;;;;49.03;22.10;;;;;;;;;;5092344;28;20024;-61
2024/01/14 05:00:25;;;;;;;48.93;21.77;;;;;;;;;;5091023;28;20109;-62
2024/01/14 05:02:50;;;;;;;48.53;20.17;;;;;;;;;;5091688;28;20257;-62
2024/01/14 05:05:15;;;;;;;50.97;23.00;;;;;;;;;;5090020;28;20039;-61
2024/01/14 05:07:41;;;;;;;45.55;20.60;;;;;;;;;;5091187;28;20286;-62
2024/01/14 05:10:07;;;;;;;53.60;22.85;;;;;;;;;;5090065;28;20380;-62
2024/01/14 05:12:32;;;;;;;45.85;21.13;;;;;;;;;;5093786;28;20028;-62
2024/01/14 05:14:57;;;;;;;45.87;21.27;;;;;;;;;;5092546;28;20475;-62
2024/01/14 05:17:23;;;;;;;44.25;21.00;;;;;;;;;;5091576;28;20262;-61
2024/01/14 05:19:48;;;;;;;47.28;21.02;;;;;;;;;;5092876;28;20031;-63
2024/01/14 05:22:13;;;;;;;48.50;21.40;;;;;;;;;;5092724;28;20160;-63
2024/01/14 05:24:41;;;;;;;45.20;19.07;;;;;;;;;;5091494;28;20289;-64
2024/01/14 05:27:06;;;;;;;48.10;20.90;;;;;;;;;;5094388;28;20258;-64
2024/01/14 05:29:31;;;;;;;43.77;18.93;;;;;;;;;;5092300;28;20374;-64
2024/01/14 05:31:56;;;;;;;44.25;18.60;;;;;;;;;;5093958;28;20297;-63
2024/01/14 05:34:21;;;;;;;45.47;19.33;;;;;;;;;;5093519;28;20024;-64
2024/01/14 05:36:47;;;;;;;43.72;19.05;;;;;;;;;;5094696;28;20288;-61
2024/01/14 05:39:12;;;;;;;44.30;19.33;;;;;;;;;;5093357;28;20038;-62
2024/01/14 05:41:37;;;;;;;43.50;19.30;;;;;;;;;;5094706;28;20269;-62
2024/01/14 05:44:02;;;;;;;42.38;18.08;;;;;;;;;;5094621;28;20286;-63
2024/01/14 05:46:27;;;;;;;43.10;19.83;;;;;;;;;;5094920;28;20384;-62
2024/01/14 05:48:52;;;;;;;42.93;18.07;;;;;;;;;;5093958;28;20023;-62
2024/01/14 05:51:18;;;;;;;42.20;18.07;;;;;;;;;;5096489;28;20284;-62
2024/01/14 05:53:43;;;;;;;39.97;17.40;;;;;;;;;;5096665;28;20314;-62
2024/01/14 05:56:08;;;;;;;43.73;19.97;;;;;;;;;;5098006;28;20028;-62
2024/01/14 05:58:34;;;;;;;41.58;18.15;;;;;;;;;;5095689;28;20277;-63
2024/01/14 06:01:00;;;;;;;45.10;20.02;;;;;;;;;;5096083;28;20446;-62
2024/01/14 06:03:26;;;;;;;43.72;18.15;;;;;;;;;;5096834;28;20092;-62
2024/01/14 06:05:51;;;;;;;44.03;18.90;;;;;;;;;;5094801;28;20032;-62
2024/01/14 06:08:16;;;;;;;44.63;19.57;;;;;;;;;;5097609;28;20027;-62
2024/01/14 06:10:41;;;;;;;42.10;17.57;;;;;;;;;;5101903;28;20656;-62
2024/01/14 06:13:06;;;;;;;41.10;18.80;;;;;;;;;;5106671;28;20262;-61
2024/01/14 06:15:32;;;;;;;44.42;19.33;;;;;;;;;;5093308;28;20319;-63
2024/01/14 06:17:57;;;;;;;42.38;19.33;;;;;;;;;;5100440;28;20096;-65
2024/01/14 06:20:22;;;;;;;44.50;18.40;;;;;;;;;;5101091;28;20043;-63
2024/01/14 06:22:47;;;;;;;42.90;18.27;;;;;;;;;;5099609;28;20262;-62
2024/01/14 06:25:13;;;;;;;44.00;19.77;;;;;;;;;;5100025;28;20273;-62
2024/01/14 06:27:38;;;;;;;46.40;19.27;;;;;;;;;;5098975;28;20327;-62
2024/01/14 06:30:03;;;;;;;43.93;18.57;;;;;;;;;;5100028;28;20377;-63
2024/01/14 06:32:28;;;;;;;44.63;19.30;;;;;;;;;;5103995;28;20262;-63
2024/01/14 06:34:54;;;;;;;44.17;18.77;;;;;;;;;;5096129;28;20019;-63
2024/01/14 06:37:19;;;;;;;43.50;19.03;;;;;;;;;;5095613;28;20386;-63
2024/01/14 06:39:44;;;;;;;45.00;20.17;;;;;;;;;;5097376;28;20258;-62
2024/01/14 06:42:10;;;;;;;44.43;19.60;;;;;;;;;;5095285;28;20726;-62
2024/01/14 06:44:37;;;;;;;43.40;18.48;;;;;;;;;;5105955;28;20312;-62
2024/01/14 06:47:03;;;;;;;44.60;19.90;;;;;;;;;;5098470;28;20047;-62
2024/01/14 06:49:28;;;;;;;44.47;19.05;;;;;;;;;;5101158;28;20034;-62
2024/01/14 06:51:53;;;;;;;45.73;20.70;;;;;;;;;;5105443;28;20023;-64
2024/01/14 06:54:18;;;;;;;44.10;19.50;;;;;;;;;;5105573;28;20334;-63
2024/01/14 06:56:44;;;;;;;47.00;19.77;;;;;;;;;;5091700;28;20259;-63
2024/01/14 06:59:13;;;;;;;45.15;20.17;;;;;;;;;;5107356;28;20265;-63
2024/01/14 07:01:39;;;;;;;42.58;18.73;;;;;;;;;;5097242;28;20088;-63
2024/01/14 07:04:04;;;;;;;44.75;19.77;;;;;;;;;;5106830;28;20095;-63
2024/01/14 07:06:29;;;;;;;44.60;19.05;;;;;;;;;;5093623;28;20379;-62
2024/01/14 07:08:54;;;;;;;44.13;18.73;;;;;;;;;;5098760;28;20376;-62
2024/01/14 07:11:19;;;;;;;39.50;18.47;;;;;;;;;;5101745;28;20289;-62
2024/01/14 07:13:45;;;;;;;43.10;19.33;;;;;;;;;;5107845;28;20582;-63
2024/01/14 07:16:10;;;;;;;43.20;18.67;;;;;;;;;;5094033;28;20407;-62
2024/01/14 07:18:35;;;;;;;45.08;17.85;;;;;;;;;;5100857;28;20337;-62
2024/01/14 07:21:00;;;;;;;41.37;17.47;;;;;;;;;;5101201;28;20455;-62
2024/01/14 07:23:25;;;;;;;47.67;17.93;;;;;;;;;;5103958;28;20391;-62
2024/01/14 07:25:50;;;;;;;41.27;16.80;;;;;;;;;;5097711;28;20288;-62
2024/01/14 07:28:16;;;;;;;41.23;19.03;;;;;;;;;;5106234;28;20281;-62
2024/01/14 07:30:42;;;;;;;43.25;18.85;;;;;;;;;;5105220;28;20285;-63
2024/01/14 07:33:07;;;;;;;42.95;19.13;;;;;;;;;;5103023;28;20027;-63
2024/01/14 07:35:32;;;;;;;42.53;17.40;;;;;;;;;;5092677;28;20016;-63
2024/01/14 07:37:58;;;;;;;45.70;20.30;;;;;;;;;;5104547;28;20305;-63
2024/01/14 07:40:23;;;;;;;40.77;17.70;;;;;;;;;;5108540;28;20279;-63
2024/01/14 07:42:48;;;;;;;46.53;18.93;;;;;;;;;;5106176;28;20265;-63
2024/01/14 07:45:13;;;;;;;47.83;19.95;;;;;;;;;;5096382;28;20873;-63
2024/01/14 07:47:39;;;;;;;43.42;17.80;;;;;;;;;;5095794;28;20027;-63
2024/01/14 07:50:04;;;;;;;43.17;18.57;;;;;;;;;;5094770;28;20551;-62
2024/01/14 07:52:31;;;;;;;43.90;19.55;;;;;;;;;;5099788;28;20380;-63
2024/01/14 07:54:56;;;;;;;45.40;19.90;;;;;;;;;;5094447;28;20111;-63
2024/01/14 07:57:21;;;;;;;44.90;19.38;;;;;;;;;;5099457;28;20093;-63
2024/01/14 07:59:46;;;;;;;44.00;18.92;;;;;;;;;;5088292;28;20025;-63
2024/01/14 08:02:11;;;;;;;46.53;20.83;;;;;;;;;;5110236;28;20027;-63
2024/01/14 08:04:37;;;;;;;44.07;19.33;;;;;;;;;;5100519;28;20269;-62
2024/01/14 08:07:03;;;;;;;48.25;20.30;;;;;;;;;;5092327;28;20741;-63
2024/01/14 08:09:28;;;;;;;48.00;19.52;;;;;;;;;;5098524;28;20015;-63
2024/01/14 08:11:53;;;;;;;47.70;21.07;;;;;;;;;;5106075;28;20548;-63
2024/01/14 08:14:19;;;;;;;45.13;18.38;;;;;;;;;;5102373;28;20305;-64
2024/01/14 08:16:44;;;;;;;40.53;16.50;;;;;;;;;;5093043;28;20269;-63
2024/01/14 08:19:10;;;;;;;43.97;19.55;;;;;;;;;;5093187;28;20276;-62
2024/01/14 08:21:35;;;;;;;45.85;19.73;;;;;;;;;;5096489;28;20023;-63
2024/01/14 08:24:03;;;;;;;45.07;17.73;;;;;;;;;;5101705;28;20405;-63
2024/01/14 08:26:29;;;;;;;44.28;18.38;;;;;;;;;;5095200;28;20286;-63
2024/01/14 08:28:54;;;;;;;45.97;20.23;;;;;;;;;;5093845;28;20008;-63
2024/01/14 08:31:19;;;;;;;43.30;18.20;;;;;;;;;;5092503;28;20088;-64
2024/01/14 08:33:45;;;;;;;45.87;21.00;;;;;;;;;;5093223;28;20123;-63
2024/01/14 08:36:10;;;;;;;48.77;20.93;;;;;;;;;;5093007;28;20265;-63
2024/01/14 08:38:35;;;;;;;42.87;18.23;;;;;;;;;;5092657;28;20258;-63
2024/01/14 08:41:00;;;;;;;43.17;19.65;;;;;;;;;;5095157;28;20274;-63
2024/01/14 08:43:25;;;;;;;44.53;20.17;;;;;;;;;;5092594;28;20106;-62
2024/01/14 08:45:51;;;;;;;42.57;18.20;;;;;;;;;;5093050;28;20040;-63
2024/01/14 08:48:16;;;;;;;42.58;18.48;;;;;;;;;;5092392;28;20304;-62
2024/01/14 08:50:41;;;;;;;41.47;17.20;;;;;;;;;;5092467;28;20058;-63
2024/01/14 08:53:06;;;;;;;43.38;18.75;;;;;;;;;;5092439;28;20343;-63
2024/01/14 08:55:32;;;;;;;40.73;17.00;;;;;;;;;;5092946;28;20051;-62
2024/01/14 08:57:57;;;;;;;39.50;17.02;;;;;;;;;;5092836;28;20262;-63
2024/01/14 09:00:22;;;;;;;43.67;18.45;;;;;;;;;;5092310;28;20056;-63
2024/01/14 09:02:47;;;;;;;43.88;17.38;;;;;;;;;;5091594;28;20042;-63
2024/01/14 09:05:13;;;;;;;42.40;18.85;;;;;;;;;;5091793;28;20023;-61
2024/01/14 09:07:38;;;;;;;43.45;18.48;;;;;;;;;;5091747;28;20426;-61
2024/01/14 09:10:03;;;;;;;40.57;16.93;;;;;;;;;;5097535;28;20110;-62
2024/01/14 09:12:29;;;;;;;44.80;19.52;;;;;;;;;;5098036;28;20261;-61
2024/01/14 09:14:54;;;;;;;44.15;17.63;;;;;;;;;;5095809;28;20012;-62
2024/01/14 09:17:19;;;;;;;46.30;19.58;;;;;;;;;;5096535;28;20027;-62
2024/01/14 09:19:45;;;;;;;42.63;18.20;;;;;;;;;;5095946;28;20043;-62
2024/01/14 09:22:10;;;;;;;43.43;18.53;;;;;;;;;;5096541;28;20034;-62
2024/01/14 09:24:35;;;;;;;47.00;19.63;;;;;;;;;;5098124;28;21034;-62
2024/01/14 09:27:00;;;;;;;46.53;20.42;;;;;;;;;;5096705;28;20270;-62
2024/01/14 09:29:25;;;;;;;46.92;19.77;;;;;;;;;;5096095;28;20107;-62
2024/01/14 09:31:51;;;;;;;41.17;17.57;;;;;;;;;;5096633;28;20031;-64
2024/01/14 09:34:16;;;;;;;41.95;18.63;;;;;;;;;;5095871;28;21427;-62
2024/01/14 09:36:41;;;;;;;48.58;19.38;;;;;;;;;;5095922;28;20031;-62
2024/01/14 09:39:10;;;;;;;46.97;19.77;;;;;;;;;;5096917;28;20022;-62
2024/01/14 09:41:41;;;;;;;45.72;18.88;;;;;;;;;;5096812;28;20262;-63
2024/01/14 09:44:09;;;;;;;46.42;18.70;;;;;;;;;;5096889;28;20057;-63
2024/01/14 09:46:34;;;;;;;42.05;17.63;;;;;;;;;;5094862;28;20039;-62
2024/01/14 09:49:01;;;;;;;43.40;18.83;;;;;;;;;;5095405;28;20023;-63
2024/01/14 09:51:30;;;;;;;47.20;20.00;;;;;;;;;;5095661;28;20381;-63
2024/01/14 09:53:56;;;;;;;41.55;18.48;;;;;;;;;;5095740;28;20056;-62
2024/01/14 09:56:22;;;;;;;44.28;18.70;;;;;;;;;;5096044;28;20490;-62
2024/01/14 09:58:48;;;;;;;37.83;17.38;;;;;;;;;;5094966;28;20016;-63
2024/01/14 10:01:16;;;;;;;44.08;20.38;;;;;;;;;;5095351;28;20110;-62
2024/01/14 10:03:41;;;;;;;43.40;18.48;;;;;;;;;;5095827;28;20148;-60
2024/01/14 10:06:07;;;;;;;45.95;20.50;;;;;;;;;;5095228;28;20102;-59
2024/01/14 10:08:32;;;;;;;43.67;17.55;;;;;;;;;;5095276;28;20061;-60
2024/01/14 10:10:58;;;;;;;41.00;19.30;;;;;;;;;;5094827;28;20027;-60
2024/01/14 10:13:24;;;;;;;53.80;23.95;;;;;;;;;;5096288;28;20309;-60
2024/01/14 10:15:49;;;;;;;45.25;19.52;;;;;;;;;;5094347;28;20024;-60
2024/01/14 10:18:15;;;;;;;44.23;17.30;;;;;;;;;;5095267;28;20425;-60
2024/01/14 10:20:40;;;;;;;42.45;19.10;;;;;;;;;;5094817;28;20274;-61
2024/01/14 10:23:05;;;;;;;42.33;18.58;;;;;;;;;;5095673;28;20140;-62
2024/01/14 10:25:30;;;;;;;43.33;18.63;;;;;;;;;;5095308;28;20047;-62
2024/01/14 10:27:56;;;;;;;41.92;17.77;;;;;;;;;;5094406;28;20699;-63
2024/01/14 10:30:23;;;;;;;41.90;17.88;;;;;;;;;;5095204;28;20991;-62
2024/01/14 10:32:49;;;;;;;43.08;18.15;;;;;;;;;;5095392;28;20024;-62
2024/01/14 10:35:15;;;;;;;44.00;19.15;;;;;;;;;;5093949;28;20020;-62
2024/01/14 10:37:40;;;;;;;44.55;19.10;;;;;;;;;;5094888;28;20024;-63
2024/01/14 10:40:09;;;;;;;45.25;19.00;;;;;;;;;;5095947;28;20028;-63
2024/01/14 10:42:37;;;;;;;44.25;21.52;;;;;;;;;;5093519;28;20024;-62
2024/01/14 10:45:04;;;;;;;40.08;16.38;;;;;;;;;;5093734;28;20065;-63
2024/01/14 10:47:29;;;;;;;38.83;16.00;;;;;;;;;;5093925;28;20027;-63
2024/01/14 10:49:57;;;;;;;38.42;16.70;;;;;;;;;;5093868;28;21107;-62
2024/01/14 10:52:23;;;;;;;35.58;15.88;;;;;;;;;;5094882;28;20019;-62
2024/01/14 10:54:49;;;;;;;39.20;15.55;;;;;;;;;;5092525;27;20349;-63
2024/01/14 10:57:32;;;;;;;38.33;16.73;;;;;;;;;;5094564;28;20024;-63
2024/01/14 10:59:58;;;;;;;41.47;17.92;;;;;;;;;;5095185;28;20042;-63
2024/01/14 11:02:25;;;;;;;39.38;15.85;;;;;;;;;;5093249;28;20020;-63
2024/01/14 11:04:50;;;;;;;39.33;15.15;;;;;;;;;;5095408;28;20118;-62
2024/01/14 11:07:15;;;;;;;39.65;17.63;;;;;;;;;;5095906;28;20099;-62
2024/01/14 11:09:41;;;;;;;37.03;15.77;;;;;;;;;;5094958;28;20105;-62
2024/01/14 11:12:10;;;;;;;37.20;16.10;;;;;;;;;;5094116;28;20020;-61
2024/01/14 11:14:56;;;;;;;37.40;15.77;;;;;;;;;;5094852;28;20024;-62
2024/01/14 11:17:39;;;;;;;39.97;16.33;;;;;;;;;;5095728;28;20499;-63
2024/01/14 11:20:05;;;;;;;38.40;15.82;;;;;;;;;;5094659;28;20069;-62
2024/01/14 11:22:31;;;;;;;35.67;15.63;;;;;;;;;;5093127;28;20031;-63
2024/01/14 11:24:56;;;;;;;39.03;16.20;;;;;;;;;;5094333;28;20456;-63
2024/01/14 11:27:21;;;;;;;36.83;15.13;;;;;;;;;;5093733;28;20024;-63
2024/01/14 11:29:46;;;;;;;34.97;14.13;;;;;;;;;;5094507;28;20258;-63
2024/01/14 11:32:12;;;;;;;36.15;15.02;;;;;;;;;;5094470;28;20032;-62
2024/01/14 11:34:50;;;;;;;36.10;14.45;;;;;;;;;;5095758;28;20024;-62
2024/01/14 11:37:34;;;;;;;34.70;14.27;;;;;;;;;;5094049;28;20823;-62
2024/01/14 11:40:00;;;;;;;;;;;;;;;;;;5094658;28;20024;-62
2024/01/14 11:42:26;;;;;;;36.60;15.55;;;;;;;;;;5091016;28;19942;-61
2024/01/14 11:44:52;;;;;;;38.03;15.57;;;;;;;;;;5092166;28;20102;-62
2024/01/14 11:47:20;;;;;;;36.20;16.38;;;;;;;;;;5090641;28;20522;-62
2024/01/14 11:49:50;;;;;;;41.38;17.30;;;;;;;;;;5093865;28;20027;-62
2024/01/14 11:52:16;;;;;;;39.03;16.55;;;;;;;;;;5092406;28;20020;-62
2024/01/14 11:54:43;;;;;;;39.67;16.98;;;;;;;;;;5092970;28;20035;-61
2024/01/14 11:57:20;;;;;;;37.17;15.95;;;;;;;;;;5092925;28;20442;-62
2024/01/14 11:59:46;;;;;;;39.97;16.98;;;;;;;;;;5094548;28;20031;-62
2024/01/14 12:02:17;;;;;;;41.88;19.02;;;;;;;;;;5092305;28;20032;-62
2024/01/14 12:04:43;;;;;;;41.78;19.25;;;;;;;;;;5092436;28;20098;-62
2024/01/14 12:07:08;;;;;;;40.17;17.65;;;;;;;;;;5092976;28;20036;-60
2024/01/14 12:09:33;;;;;;;41.10;16.23;;;;;;;;;;5093120;28;20034;-63
2024/01/14 12:12:03;;;;;;;40.25;17.27;;;;;;;;;;5092201;28;20027;-63
2024/01/14 12:14:29;;;;;;;40.70;17.58;;;;;;;;;;5091154;28;20036;-62
2024/01/14 12:16:54;;;;;;;40.10;16.95;;;;;;;;;;5092237;28;20034;-62
2024/01/14 12:19:19;;;;;;;39.70;17.00;;;;;;;;;;5096420;28;20622;-62
2024/01/14 12:21:45;;;;;;;39.70;16.67;;;;;;;;;;5091919;28;20281;-63
2024/01/14 12:24:10;;;;;;;43.47;19.30;;;;;;;;;;5092024;28;20269;-62
2024/01/14 12:26:35;;;;;;;42.72;17.58;;;;;;;;;;5099541;28;20103;-62
2024/01/14 12:29:01;;;;;;;42.40;19.83;;;;;;;;;;5090629;28;20107;-63
2024/01/14 12:31:26;;;;;;;46.25;20.13;;;;;;;;;;5095025;28;20289;-62
2024/01/14 12:33:51;;;;;;;47.80;19.63;;;;;;;;;;5092482;28;20484;-62
2024/01/14 12:36:18;;;;;;;47.13;19.30;;;;;;;;;;5093878;28;20044;-62
2024/01/14 12:38:43;;;;;;;44.53;18.73;;;;;;;;;;5092933;28;20012;-63
2024/01/14 12:41:09;;;;;;;43.72;20.30;;;;;;;;;;5092395;28;20081;-64
2024/01/14 12:43:35;;;;;;;46.75;19.98;;;;;;;;;;5092928;28;20019;-62
2024/01/14 12:46:02;;;;;;;40.30;17.77;;;;;;;;;;5093758;28;20423;-63
2024/01/14 12:48:27;;;;;;;45.00;19.65;;;;;;;;;;5092543;28;20550;-60
2024/01/14 12:50:56;;;;;;;42.47;17.63;;;;;;;;;;5091645;28;20113;-60
2024/01/14 12:53:22;;;;;;;45.15;21.05;;;;;;;;;;5092015;28;20475;-61
2024/01/14 12:55:47;;;;;;;46.50;19.95;;;;;;;;;;5092547;28;20069;-62
2024/01/14 12:58:12;;;;;;;45.90;19.70;;;;;;;;;;5089913;28;20073;-62
2024/01/14 13:00:38;;;;;;;47.45;19.98;;;;;;;;;;5091380;28;20351;-62
2024/01/14 13:03:04;;;;;;;41.63;18.95;;;;;;;;;;5092318;28;20031;-62
2024/01/14 13:05:29;;;;;;;44.75;19.63;;;;;;;;;;5092373;28;20493;-61
2024/01/14 13:07:55;;;;;;;44.50;20.13;;;;;;;;;;5093153;28;20020;-62
2024/01/14 13:10:20;;;;;;;47.47;21.73;;;;;;;;;;5093242;28;20023;-62
2024/01/14 13:12:45;;;;;;;42.83;19.55;;;;;;;;;;5091116;28;20826;-62
2024/01/14 13:15:11;;;;;;;45.40;20.52;;;;;;;;;;5091919;28;20471;-61
2024/01/14 13:17:36;;;;;;;44.25;20.27;;;;;;;;;;5091304;28;20043;-62
2024/01/14 13:20:01;;;;;;;45.28;20.15;;;;;;;;;;5092596;28;20115;-62
2024/01/14 13:22:27;;;;;;;42.83;18.77;;;;;;;;;;5092108;28;20024;-62
2024/01/14 13:24:52;;;;;;;45.25;18.13;;;;;;;;;;5093047;28;20424;-62
2024/01/14 13:27:17;;;;;;;48.33;21.05;;;;;;;;;;5093555;28;20436;-62
2024/01/14 13:29:43;;;;;;;42.55;18.75;;;;;;;;;;5092773;28;20397;-62
2024/01/14 13:32:08;;;;;;;40.50;17.25;;;;;;;;;;5091575;28;20055;-62
2024/01/14 13:34:33;;;;;;;41.40;17.13;;;;;;;;;;5092957;28;20044;-63
2024/01/14 13:36:58;;;;;;;41.22;16.25;;;;;;;;;;5093627;28;20023;-62
2024/01/14 13:39:24;;;;;;;43.97;18.15;;;;;;;;;;5091446;28;20035;-62
2024/01/14 13:41:49;;;;;;;40.47;16.90;;;;;;;;;;5091049;28;20062;-62
2024/01/14 13:44:15;;;;;;;40.22;16.10;;;;;;;;;;5092361;28;20031;-62
2024/01/14 13:46:40;;;;;;;40.80;15.23;;;;;;;;;;5090619;28;20373;-61
2024/01/14 13:49:05;;;;;;;40.42;16.60;;;;;;;;;;5092430;28;20258;-62
2024/01/14 13:51:30;;;;;;;35.50;15.65;;;;;;;;;;5092784;28;20025;-63
2024/01/14 13:53:56;;;;;;;36.75;14.65;;;;;;;;;;5091990;28;20460;-61
2024/01/14 13:56:21;;;;;;;39.03;16.67;;;;;;;;;;5095708;28;20024;-62
2024/01/14 13:58:46;;;;;;;36.80;15.35;;;;;;;;;;5096479;28;20554;-62
2024/01/14 14:01:11;;;;;;;38.77;17.07;;;;;;;;;;5096501;28;20027;-62
2024/01/14 14:03:36;;;;;;;36.43;16.00;;;;;;;;;;5100036;28;20266;-63
2024/01/14 14:06:02;;;;;;;39.77;16.13;;;;;;;;;;5101254;28;20258;-64
2024/01/14 14:08:27;;;;;;;37.58;17.50;;;;;;;;;;5097403;28;20616;-63
2024/01/14 14:10:52;;;;;;;37.72;17.25;;;;;;;;;;5095132;28;20016;-62